createdAt,value
2022-11-28T00:10:21.291Z,9.42
2022-11-28T00:22:21.192Z,9.42
2022-11-28T00:34:21.196Z,9.41
2022-11-28T00:46:21.522Z,9.40
2022-11-28T00:58:21.291Z,9.40
2022-11-28T01:10:21.257Z,9.39
2022-11-28T01:22:21.268Z,9.38
2022-11-28T01:34:21.276Z,9.38
2022-11-28T01:46:21.346Z,9.37
2022-11-28T01:58:21.198Z,9.37
2022-11-28T02:10:21.210Z,9.36
2022-11-28T02:22:21.199Z,9.36
2022-11-28T02:34:21.296Z,9.35
2022-11-28T02:46:21.318Z,9.35
2022-11-28T02:58:21.207Z,9.34
2022-11-28T03:10:21.193Z,9.34
2022-11-28T03:22:21.239Z,9.33
2022-11-28T03:34:21.286Z,9.33
2022-11-28T03:46:21.332Z,9.32
2022-11-28T03:58:21.198Z,9.32
2022-11-28T04:10:21.198Z,9.31
2022-11-28T04:22:21.321Z,9.31
2022-11-28T04:34:21.320Z,9.30
2022-11-28T04:46:21.349Z,9.30
2022-11-28T04:58:21.241Z,9.30
2022-11-28T05:10:21.274Z,9.29
2022-11-28T05:22:21.303Z,9.28
2022-11-28T05:34:21.320Z,9.28
2022-11-28T05:46:21.242Z,9.28
2022-11-28T05:58:21.278Z,9.27
2022-11-28T06:10:21.306Z,9.27
2022-11-28T06:22:21.186Z,9.26
2022-11-28T06:34:21.256Z,9.26
2022-11-28T06:46:21.263Z,9.26
2022-11-28T06:58:21.317Z,9.25
2022-11-28T07:10:21.278Z,9.25
2022-11-28T07:22:21.247Z,9.24
2022-11-28T07:34:21.291Z,9.24
2022-11-28T07:46:21.357Z,9.24
2022-11-28T07:58:21.452Z,9.24
2022-11-28T08:10:21.204Z,9.24
2022-11-28T08:22:21.212Z,9.24
2022-11-28T08:34:22.735Z,9.24
2022-11-28T08:46:21.276Z,9.24
2022-11-28T08:58:21.207Z,9.24
2022-11-28T09:10:21.299Z,9.23
2022-11-28T09:22:21.193Z,9.23
2022-11-28T09:34:21.302Z,9.23
2022-11-28T09:46:21.314Z,9.23
2022-11-28T09:58:22.651Z,9.23
2022-11-28T10:10:21.303Z,9.22
2022-11-28T10:22:21.200Z,9.22
2022-11-28T10:34:21.254Z,9.22
2022-11-28T10:46:21.418Z,9.22
2022-11-28T10:58:21.200Z,9.22
2022-11-28T11:10:21.200Z,9.22
2022-11-28T11:22:21.196Z,9.21
2022-11-28T11:34:21.257Z,9.21
2022-11-28T11:46:21.405Z,9.21
2022-11-28T11:58:21.237Z,9.21
2022-11-28T12:10:21.288Z,9.22
2022-11-28T12:22:21.204Z,9.22
2022-11-28T12:34:21.210Z,9.21
2022-11-28T12:46:21.247Z,9.22
2022-11-28T12:58:21.289Z,9.29
2022-11-28T13:10:21.194Z,9.31
2022-11-28T13:22:21.293Z,9.30
2022-11-28T13:34:21.201Z,9.30
2022-11-28T13:46:21.283Z,9.29
2022-11-28T13:58:22.329Z,9.29
2022-11-28T14:10:21.300Z,9.29
2022-11-28T14:22:21.264Z,9.28
2022-11-28T14:34:21.199Z,9.28
2022-11-28T14:46:21.340Z,9.28
2022-11-28T14:58:21.353Z,9.27
2022-11-28T15:10:21.190Z,9.27
2022-11-28T15:22:21.309Z,9.26
2022-11-28T15:34:21.313Z,9.26
2022-11-28T15:46:21.315Z,9.25
2022-11-28T15:58:21.268Z,9.24
2022-11-28T16:10:21.248Z,9.24
2022-11-28T16:22:21.276Z,9.23
2022-11-28T16:34:21.197Z,9.22
2022-11-28T16:46:21.284Z,9.22
2022-11-28T16:58:21.202Z,9.21
2022-11-28T17:10:21.309Z,9.20
2022-11-28T17:22:21.501Z,9.20
2022-11-28T17:34:21.219Z,9.19
2022-11-28T17:46:21.365Z,9.18
2022-11-28T17:58:21.194Z,9.18
2022-11-28T18:10:21.196Z,9.17
2022-11-28T18:22:21.291Z,9.16
2022-11-28T18:34:21.307Z,9.16
2022-11-28T18:46:21.312Z,9.15
2022-11-28T18:58:21.195Z,9.15
2022-11-28T19:10:21.303Z,9.14
2022-11-28T19:22:21.308Z,9.14
2022-11-28T19:34:21.194Z,9.13
2022-11-28T19:46:21.191Z,9.12
2022-11-28T19:58:21.303Z,9.12
2022-11-28T20:10:21.324Z,9.12
2022-11-28T20:22:21.194Z,9.11
2022-11-28T20:34:21.280Z,9.10
2022-11-28T20:46:21.201Z,9.10
2022-11-28T20:58:21.195Z,9.09
2022-11-28T21:10:21.319Z,9.09
2022-11-28T21:22:21.298Z,9.09
2022-11-28T21:34:21.309Z,9.08
2022-11-28T21:46:21.295Z,9.08
2022-11-28T21:58:26.309Z,9.07
2022-11-28T22:10:21.275Z,9.07
2022-11-28T22:22:21.199Z,9.06
2022-11-28T22:34:21.198Z,9.06
2022-11-28T22:46:21.261Z,9.06
2022-11-28T22:58:21.194Z,9.05
2022-11-28T23:10:21.194Z,9.05
2022-11-28T23:22:21.311Z,9.04
2022-11-28T23:34:21.310Z,9.04
2022-11-28T23:46:21.199Z,9.03
2022-11-28T23:58:21.201Z,9.03
